Diapaga Airport


Codes: DFED/DIP
Name: Diapaga Airport
City: Diapaga
Country: Burkina Faso
Elevation: 951 ft.

Photos at Diapaga Airport


   Photos courtesy of SpottingLog. You can add your own sightings and photos by signing up for a free trial today.



No photos found.

Weather at Diapaga Airport


Time (UTC)DescriptionTempratureWindCloud coverageVisibilityPressureHumidity
13-Jun-2024 03:00Few Clouds28°C4 mph, SE12%10000m1010hPa67%
13-Jun-2024 06:00Few Clouds28°C4 mph, S11%10000m1010hPa68%
13-Jun-2024 09:00Few Clouds30°C7 mph, S11%10000m1012hPa55%
13-Jun-2024 12:00Clear Sky35°C7 mph, S10%10000m1011hPa39%
13-Jun-2024 15:00Few Clouds36°C7 mph, SE15%10000m1008hPa36%
13-Jun-2024 18:00Few Clouds34°C4 mph, SE23%10000m1009hPa44%
13-Jun-2024 21:00Scattered Clouds32°C7 mph, S28%10000m1010hPa51%
14-Jun-2024 00:00Scattered Clouds30°C7 mph, SW33%10000m1011hPa58%
14-Jun-2024 03:00Broken Clouds28°C11 mph, SW58%10000m1009hPa66%
14-Jun-2024 06:00Scattered Clouds27°C9 mph, SW50%10000m1010hPa70%
14-Jun-2024 09:00Broken Clouds31°C13 mph, SW64%10000m1012hPa58%
14-Jun-2024 12:00Broken Clouds34°C9 mph, SW76%10000m1011hPa45%
14-Jun-2024 15:00Scattered Clouds36°C7 mph, SW43%10000m1008hPa38%
14-Jun-2024 18:00Scattered Clouds35°C4 mph, S31%10000m1008hPa43%
14-Jun-2024 21:00Clear Sky32°C7 mph, SW3%10000m1009hPa51%
15-Jun-2024 00:00Clear Sky29°C9 mph, SW3%10000m1010hPa61%
15-Jun-2024 03:00Light Rain28°C11 mph, SW100%10000m1008hPa68%
15-Jun-2024 06:00Overcast Clouds27°C13 mph, SW100%10000m1009hPa70%
15-Jun-2024 09:00Overcast Clouds30°C13 mph, SW95%10000m1011hPa59%
15-Jun-2024 12:00Broken Clouds34°C9 mph, SW65%10000m1010hPa45%
15-Jun-2024 15:00Broken Clouds36°C7 mph, SW83%10000m1007hPa38%
15-Jun-2024 18:00Broken Clouds35°C4 mph, SW78%10000m1007hPa41%
15-Jun-2024 21:00Overcast Clouds33°C7 mph, SW100%10000m1008hPa49%
16-Jun-2024 00:00Light Rain30°C7 mph, S87%10000m1008hPa58%
16-Jun-2024 03:00Light Rain28°C9 mph, S70%10000m1008hPa66%
16-Jun-2024 06:00Moderate Rain26°C11 mph, SW71%10000m1010hPa78%
16-Jun-2024 09:00Light Rain25°C7 mph, S100%7168m1012hPa84%
16-Jun-2024 12:00Heavy Intensity Rain24°C9 mph, W100%10000m1012hPa91%
16-Jun-2024 15:00Moderate Rain24°C7 mph, NW100%10000m1010hPa79%
16-Jun-2024 18:00Overcast Clouds24°C9 mph, SW100%10000m1009hPa82%
16-Jun-2024 21:00Overcast Clouds24°C4 mph, S85%10000m1011hPa86%
17-Jun-2024 00:00Overcast Clouds24°C4 mph, SW93%10000m1013hPa89%
17-Jun-2024 03:00Broken Clouds24°C7 mph, SW81%10000m1012hPa91%
17-Jun-2024 06:00Overcast Clouds24°C7 mph, SW89%10000m1013hPa92%
17-Jun-2024 09:00Overcast Clouds26°C7 mph, SW99%10000m1013hPa79%
17-Jun-2024 12:00Overcast Clouds31°C7 mph, SW99%10000m1011hPa57%
17-Jun-2024 15:00Overcast Clouds32°C4 mph, SW100%10000m1009hPa49%
17-Jun-2024 18:00Overcast Clouds31°C2 mph, SW86%10000m1009hPa57%
17-Jun-2024 21:00Few Clouds29°C2 mph, S11%10000m1011hPa60%
18-Jun-2024 00:00Light Rain28°C7 mph, SE40%10000m1012hPa66%